Latest Weather Observations for Melbourne

IDV60801

Issued at 8:35 pm EDT Monday 20 October 2014 (issued every 30 minutes, with the page automatically refreshed every 10 minutes)

About weather observations | Map of weather stations | Latest weather observations for VIC | Other Formats
Station Details ID: 086071 Name: MELBOURNE REGIONAL OFFICE Lat: -37.81 Lon: 144.97 Height: 31.15 m
Data from the previous 72 hours. | See also: Recent months at Melbourne

* Apparent temperature (App Temp) for Melbourne is calculated using temperature observations collected at Melbourne and wind observations collected at Melbourne (Olympic Park), as wind observations are not currently provided for Melbourne.

Date/Time
EDT
Temp
°C
App
Temp
°C
Dew
Point
Rel
Hum
%
Delta-T
°C
Wind Press
QNH
hPa
Press
MSL
hPa
Rain
since 9 am
mm
Dir
 
Spd
km/h
Gust
km/h
Spd
kts
Gust
kts
20/08:30pm 15.8 12.5 6.5 54 4.5 SSE 13 - 7 - 1026.9 - 0.0
20/08:00pm 16.6 12.3 6.8 52 4.8 SSE 19 - 10 - 1026.7 - 0.0
20/07:30pm 17.3 14.1 6.8 50 5.2 SE 13 - 7 - 1026.6 - 0.0
20/07:00pm 18.4 13.8 6.5 45 5.9 S 20 - 11 - 1026.4 - 0.0
20/06:30pm 19.5 15.0 5.9 41 6.7 SE 19 - 10 - 1026.3 - 0.0
20/06:00pm 20.6 16.3 5.3 36 7.5 SSE 17 - 9 - 1026.4 1026.4 0.0
20/05:30pm 20.5 15.6 3.9 33 8.0 SSE 19 - 10 - 1026.5 - 0.0
20/05:00pm 20.4 16.0 4.7 35 7.6 SE 17 - 9 - 1026.4 - 0.0
20/04:30pm 20.4 15.3 3.1 32 8.2 SE 19 - 10 - 1026.6 - 0.0
20/04:00pm 20.4 15.6 2.5 30 8.3 SE 17 - 9 - 1026.7 - 0.0
20/03:30pm 20.3 14.8 2.0 29 8.4 SE 20 - 11 - 1027.1 - 0.0
20/03:00pm 20.2 14.8 1.4 28 8.5 SE 19 - 10 - 1027.3 1027.3 0.0
20/02:30pm 19.9 15.0 2.3 31 8.1 SE 17 - 9 - 1027.6 - 0.0
20/02:00pm 18.7 13.7 1.5 31 7.8 SSE 17 - 9 - 1027.9 - 0.0
20/01:30pm 18.6 14.0 1.7 32 7.6 SSE 15 - 8 - 1028.3 - 0.0
20/01:00pm 18.5 13.1 1.5 32 7.6 SE 19 - 10 - 1028.5 - 0.0
20/12:30pm 17.9 12.8 0.8 31 7.5 SE 17 - 9 - 1028.9 - 0.0
20/12:00pm 17.1 11.7 1.1 34 7.0 SSE 19 - 10 - 1029.3 1029.3 0.0
20/11:30am 16.4 12.2 1.6 37 6.6 SSE 13 - 7 - 1029.6 - 0.0
20/11:00am 15.5 10.9 1.5 38 6.1 SE 15 - 8 - 1029.8 - 0.0
20/10:30am 15.6 10.2 1.3 38 6.2 ESE 19 - 10 - 1030.1 - 0.0
20/10:00am 14.9 9.7 0.1 36 6.3 SE 17 - 9 - 1030.3 - 0.0
20/09:30am 13.2 7.6 -0.2 39 5.5 SSE 19 - 10 - 1030.5 - 0.0
20/09:00am 13.2 8.3 2.1 47 4.8 SE 17 - 9 - 1030.3 1030.3 0.0
20/08:30am 12.6 8.1 2.1 49 4.5 SE 15 - 8 - 1030.2 - 0.0
20/08:00am 12.2 8.2 2.8 52 4.1 SE 13 - 7 - 1030.2 - 0.0
20/07:30am 11.4 7.8 3.1 56 3.6 SSE 11 - 6 - 1029.9 - 0.0
20/07:00am 10.8 7.3 3.7 61 3.1 SSE 11 - 6 - 1029.7 - 0.0
20/06:30am 10.9 7.2 4.6 65 2.8 SSE 13 - 7 - 1029.6 - 0.0
20/06:00am 11.0 7.5 5.3 68 2.6 SSE 13 - 7 - 1029.1 1029.1 0.0
20/05:30am 11.2 7.7 5.3 67 2.7 SSE 13 - 7 - 1029.3 - 0.0
20/05:00am 11.4 8.2 5.3 66 2.8 SSE 11 - 6 - 1028.8 - 0.0
20/04:30am 11.8 8.5 6.5 70 2.5 SE 13 - 7 - 1028.8 - 0.0
20/04:00am 12.4 9.2 7.0 69 2.6 SSE 13 - 7 - 1028.6 - 0.0
20/03:30am 12.4 9.5 8.1 75 2.1 SE 13 - 7 - 1028.7 - 0.0
20/03:00am 12.2 9.7 8.3 77 1.9 SSE 11 - 6 - 1028.7 1028.7 0.0
20/02:30am 12.5 8.4 8.0 74 2.2 SSE 19 - 10 - 1028.9 - 0.0
20/02:00am 13.0 9.5 7.2 68 2.8 SSE 15 - 8 - 1028.7 - 0.0
20/01:30am 13.1 9.3 7.5 69 2.7 SSE 17 - 9 - 1028.9 - 0.0
20/01:00am 13.2 9.5 7.9 70 2.6 SSE 17 - 9 - 1028.9 - 0.0
20/12:30am 13.1 9.5 8.5 73 2.3 SSE 17 - 9 - 1028.9 - 0.0
20/12:00am 13.3 9.5 8.9 74 2.2 SSE 19 - 10 - 1028.6 1028.6 0.0
 
Date/Time
EDT
Temp
°C
App
Temp
°C
Dew
Point
Rel
Hum
%
Delta-T
°C
Wind Press
QNH
hPa
Press
MSL
hPa
Rain
since 9 am
mm
Dir
 
Spd
km/h
Gust
km/h
Spd
kts
Gust
kts
19/11:30pm 13.8 10.9 9.5 75 2.2 SSE 15 - 8 - 1028.4 - 0.0
19/11:00pm 14.8 12.0 10.0 73 2.5 S 15 - 8 - 1028.1 - 0.0
19/10:30pm 15.2 13.4 11.0 76 2.2 S 11 - 6 - 1027.8 - 0.0
19/10:00pm 15.1 12.8 10.5 74 2.4 S 13 - 7 - 1027.8 - 0.0
19/09:30pm 15.4 12.9 10.9 74 2.4 S 15 - 8 - 1027.7 - 0.0
19/09:00pm 15.6 13.8 10.7 72 2.6 S 11 - 6 - 1026.9 1026.9 0.0
19/08:30pm 15.6 14.3 11.3 75 2.3 S 9 - 5 - 1026.0 - 0.0
19/08:00pm 15.8 13.4 11.3 74 2.4 S 15 - 8 - 1025.4 - 0.0
19/07:30pm 16.0 14.1 11.7 75 2.3 SSW 13 - 7 - 1024.9 - 0.0
19/07:00pm 16.5 13.8 11.7 73 2.6 SSW 17 - 9 - 1024.3 - 0.0
19/06:30pm 16.7 14.4 11.9 73 2.6 SSW 15 - 8 - 1023.5 - 0.0
19/06:00pm 17.0 13.9 11.5 70 3.0 SSW 19 - 10 - 1022.6 1022.6 0.0
19/05:30pm 17.1 14.4 11.6 70 3.0 S 17 - 9 - 1021.7 - 0.0
19/05:00pm 16.9 14.4 12.2 74 2.6 SSW 17 - 9 - 1020.9 - 0.0
19/04:30pm 18.7 16.2 12.4 67 3.5 SSW 17 - 9 - 1019.8 - 0.0
19/04:00pm 20.5 18.1 12.5 60 4.5 SSW 17 - 9 - 1019.3 - 0.0
19/03:30pm 28.8 24.7 4.3 21 12.5 NW 15 - 8 - 1018.6 - 0.0
19/03:00pm 27.9 23.1 5.8 24 11.5 N 20 - 11 - 1018.8 1018.8 0.0
19/02:30pm 26.3 21.0 4.8 25 10.9 N 22 - 12 - 1019.2 - 0.0
19/02:00pm 25.7 19.6 4.9 26 10.5 N 26 - 14 - 1019.7 - 0.0
19/01:30pm 26.0 20.0 5.1 26 10.6 N 26 - 14 - 1019.9 - 0.0
19/01:00pm 25.7 19.3 3.3 23 11.0 N 26 - 14 - 1020.1 - 0.0
19/12:30pm 25.9 19.7 2.2 21 11.4 N 24 - 13 - 1020.1 - 0.0
19/12:00pm 25.5 18.5 1.8 21 11.3 N 28 - 15 - 1020.3 1020.3 0.0
19/11:30am 25.0 18.6 0.7 20 11.3 N 24 - 13 - 1020.5 - 0.0
19/11:00am 23.6 16.9 1.6 23 10.3 N 26 - 14 - 1020.8 - 0.0
19/10:30am 23.1 16.4 1.3 23 10.1 N 26 - 14 - 1021.1 - 0.0
19/10:00am 22.3 15.1 0.8 24 9.8 N 28 - 15 - 1021.4 - 0.0
19/09:30am 22.0 14.3 2.4 27 9.2 N 32 - 17 - 1021.5 - 0.0
19/09:00am 21.6 15.8 2.4 28 9.0 N 22 - 12 - 1021.6 1021.6 0.0
19/08:30am 21.6 15.2 3.0 29 8.8 N 26 - 14 - 1021.6 - 0.0
19/08:00am 20.8 15.9 4.2 33 8.0 N 19 - 10 - 1021.5 - 0.0
19/07:30am 19.6 14.2 4.4 36 7.3 N 22 - 12 - 1021.1 - 0.0
19/07:00am 19.1 13.7 4.5 38 7.0 N 22 - 12 - 1020.7 - 0.0
19/06:30am 19.2 13.5 4.9 39 6.9 N 24 - 13 - 1020.4 - 0.0
19/06:00am 19.4 13.7 4.7 38 7.1 N 24 - 13 - 1020.2 1020.2 0.0
19/05:30am 19.3 14.5 4.8 38 7.0 N 19 - 10 - 1020.3 - 0.0
19/05:00am 19.5 14.6 4.2 36 7.3 N 19 - 10 - 1020.2 - 0.0
19/04:30am 20.2 16.1 4.1 34 7.7 N 15 - 8 - 1020.3 - 0.0
19/04:00am 19.8 15.8 4.7 37 7.3 NNE 15 - 8 - 1020.4 - 0.0
19/03:30am 19.8 15.7 4.1 35 7.5 N 15 - 8 - 1020.5 - 0.0
19/03:00am 19.7 15.6 4.2 36 7.4 NNE 15 - 8 - 1020.7 1020.7 0.0
19/02:30am 19.3 14.4 4.2 37 7.2 N 19 - 10 - 1021.0 - 0.0
19/02:00am 19.4 14.5 4.0 36 7.3 N 19 - 10 - 1021.1 - 0.0
19/01:30am 19.4 16.4 4.0 36 7.3 N 9 - 5 - 1021.3 - 0.0
19/01:00am 18.8 15.9 4.6 39 6.8 N 9 - 5 - 1021.4 - 0.0
19/12:30am 18.6 15.4 5.1 41 6.5 N 11 - 6 - 1021.5 - 0.0
19/12:00am 18.8 16.0 5.2 40 6.6 N 9 - 5 - 1021.7 1021.7 0.0
 
Date/Time
EDT
Temp
°C
App
Temp
°C
Dew
Point
Rel
Hum
%
Delta-T
°C
Wind Press
QNH
hPa
Press
MSL
hPa
Rain
since 9 am
mm
Dir
 
Spd
km/h
Gust
km/h
Spd
kts
Gust
kts
18/11:30pm 18.9 15.8 5.6 41 6.5 N 11 - 6 - 1022.0 - 0.0
18/11:00pm 19.3 16.3 5.9 41 6.6 N 11 - 6 - 1022.2 - 0.0
18/10:30pm 20.0 16.5 5.3 38 7.2 NNE 13 - 7 - 1022.4 - 0.0
18/10:00pm 20.8 17.9 4.8 35 7.8 N 9 - 5 - 1022.8 - 0.0
18/09:30pm 21.3 18.0 4.4 33 8.2 N 11 - 6 - 1023.0 - 0.0
18/09:00pm 21.4 18.2 4.9 34 8.1 N 11 - 6 - 1022.9 1022.9 0.0
18/08:30pm 21.8 18.2 5.2 34 8.2 N 13 - 7 - 1022.7 - 0.0
18/08:00pm 22.4 18.8 5.0 32 8.6 N 13 - 7 - 1022.8 - 0.0
18/07:30pm 22.9 19.2 4.3 29 9.1 N 13 - 7 - 1022.7 - 0.0
18/07:00pm 23.3 19.1 3.8 28 9.5 N 15 - 8 - 1022.4 - 0.0
18/06:30pm 23.7 18.8 4.2 28 9.6 N 19 - 10 - 1022.0 - 0.0
18/06:00pm 23.9 18.7 3.5 26 9.9 N 20 - 11 - 1021.9 1021.9 0.0
18/05:30pm 23.7 18.3 2.5 25 10.1 N 20 - 11 - 1021.8 - 0.0
18/05:00pm 24.2 18.3 3.8 26 10.0 N 24 - 13 - 1021.5 - 0.0
18/04:30pm 23.6 16.7 2.3 24 10.1 N 28 - 15 - 1021.8 - 0.0
18/04:00pm 23.0 17.3 2.9 26 9.6 N 22 - 12 - 1021.8 - 0.0
18/03:30pm 22.6 17.0 3.5 28 9.2 N 22 - 12 - 1022.6 - 0.0
18/03:00pm 22.6 17.8 2.8 27 9.4 N 17 - 9 - 1023.0 1023.0 0.0
18/02:30pm 22.7 16.9 2.3 26 9.6 N 22 - 12 - 1023.6 - 0.0
18/02:00pm 21.9 16.0 3.8 30 8.8 N 24 - 13 - 1023.6 - 0.0
18/01:30pm 21.1 15.7 4.4 33 8.1 N 22 - 12 - 1024.1 - 0.0
18/01:00pm 20.3 15.2 4.3 35 7.7 N 20 - 11 - 1024.8 - 0.0
18/12:30pm 19.5 14.6 5.3 39 6.9 N 20 - 11 - 1025.3 - 0.0
18/12:00pm 19.7 14.9 4.5 36 7.3 N 19 - 10 - 1025.7 1025.7 0.0
18/11:30am 19.6 14.2 4.3 36 7.3 N 22 - 12 - 1025.7 - 0.0
18/11:00am 20.3 14.6 4.8 36 7.6 N 24 - 13 - 1026.0 - 0.0
18/10:30am 18.8 13.2 3.3 35 7.3 N 22 - 12 - 1026.4 - 0.0
18/10:00am 19.4 14.5 4.3 37 7.2 N 19 - 10 - 1026.3 - 0.0
18/09:30am 17.8 14.8 3.9 39 6.5 NE 9 - 5 - 1026.4 - 0.0
18/09:00am 14.7 12.0 5.6 54 4.3 NE 9 - 5 - 1026.5 1026.5 0.0
18/08:30am 12.7 9.8 6.4 65 3.0 NNE 11 - 6 - 1026.4 - 0.0
18/08:00am 10.6 7.6 5.8 72 2.2 N 11 - 6 - 1026.2 - 0.0
18/07:30am 9.4 6.7 5.6 77 1.7 N 9 - 5 - 1026.2 - 0.0
18/07:00am 9.0 6.4 6.2 82 1.3 NNE 9 - 5 - 1025.9 - 0.0
18/06:30am 8.8 6.5 5.7 81 1.4 NE 7 - 4 - 1025.5 - 0.0
18/06:00am 9.0 6.9 5.7 80 1.5 NE 6 - 3 - 1025.2 1025.2 0.0
18/05:30am 9.1 6.4 5.8 80 1.5 NNE 9 - 5 - 1024.8 - 0.0
18/05:00am 9.0 6.8 6.2 82 1.3 NNE 7 - 4 - 1024.7 - 0.0
18/04:30am 8.9 6.3 6.0 82 1.3 NNE 9 - 5 - 1024.7 - 0.0
18/04:00am 9.1 7.0 6.0 81 1.4 E 6 - 3 - 1024.8 - 0.0
18/03:30am 9.7 7.5 6.0 78 1.7 NE 7 - 4 - 1025.0 - 0.0
18/03:00am 9.8 7.2 6.1 78 1.7 NE 9 - 5 - 1024.9 1024.9 0.0
18/02:30am 10.4 7.8 6.3 76 1.9 NNE 9 - 5 - 1024.9 - 0.0
18/02:00am 11.1 8.1 6.2 72 2.3 NNE 11 - 6 - 1025.2 - 0.0
18/01:30am 11.5 9.9 6.4 71 2.4 NNE 4 - 2 - 1025.5 - 0.0
18/01:00am 11.7 9.7 6.1 68 2.6 NNE 6 - 3 - 1025.8 - 0.0
18/12:30am 11.7 10.1 6.4 70 2.5 NNE 4 - 2 - 1026.1 - 0.0
18/12:00am 12.0 11.1 6.0 66 2.8 CALM 0 - 0 - 1026.6 1026.6 0.0
 
Date/Time
EDT
Temp
°C
App
Temp
°C
Dew
Point
Rel
Hum
%
Delta-T
°C
Wind Press
QNH
hPa
Press
MSL
hPa
Rain
since 9 am
mm
Dir
 
Spd
km/h
Gust
km/h
Spd
kts
Gust
kts
17/11:30pm 11.8 10.9 6.0 67 2.7 CALM 0 - 0 - 1026.8 - 0.0
17/11:00pm 12.6 11.3 6.0 64 3.1 SSW 2 - 1 - 1026.8 - 0.0
17/10:30pm 12.9 10.8 5.9 62 3.3 S 6 - 3 - 1026.8 - 0.0
17/10:00pm 12.9 10.6 5.6 61 3.4 S 7 - 4 - 1026.7 - 0.0
17/09:30pm 13.2 11.0 5.5 59 3.6 SE 6 - 3 - 1026.6 - 0.0
17/09:00pm 13.8 11.1 5.7 58 3.8 SSE 9 - 5 - 1026.7 1026.7 0.0

Other Formats:

Comma delimited format used in spreadsheet applications
http://www.bom.gov.au/fwo/IDV60801/IDV60801.94868.axf

JavaScript Object Notation format (JSON) in row-major order
http://www.bom.gov.au/fwo/IDV60801/IDV60801.94868.json